Time;durP1;ratioP1;P1;durP2;ratioP2;P2;SDS_P1;SDS_P2;PMS_P1;PMS_P2;Temp;Humidity;BMP_temperature;BMP_pressure;BME280_temperature;BME280_humidity;BME280_pressure;Samples;Min_cycle;Max_cycle;Signal;HPM_P1;HPM_P2
2022/04/06 00:00:21;;;;;;;25.13;8.90;;;8.40;99.90;;;;;;5093471;28;20115;-60
2022/04/06 00:02:47;;;;;;;25.05;11.05;;;8.40;99.90;;;;;;5094575;28;20601;-60
2022/04/06 00:05:13;;;;;;;24.60;8.95;;;8.40;99.90;;;;;;5094519;28;20055;-60
2022/04/06 00:07:40;;;;;;;18.27;8.57;;;8.50;99.90;;;;;;5094262;28;20044;-60
2022/04/06 00:10:07;;;;;;;28.63;11.10;;;8.50;99.90;;;;;;5092968;28;20499;-60
2022/04/06 00:12:34;;;;;;;21.67;9.45;;;8.50;99.90;;;;;;5094213;28;20478;-59
2022/04/06 00:15:00;;;;;;;29.33;11.27;;;8.50;99.90;;;;;;5094480;28;20046;-60
2022/04/06 00:17:26;;;;;;;23.65;10.02;;;8.50;99.90;;;;;;5094094;28;20123;-61
2022/04/06 00:19:51;;;;;;;23.35;10.27;;;8.50;99.90;;;;;;5094228;28;20036;-60
2022/04/06 00:22:17;;;;;;;32.10;11.73;;;8.50;99.90;;;;;;5092669;28;20050;-60
2022/04/06 00:24:43;;;;;;;35.13;12.10;;;8.50;99.90;;;;;;5094033;28;20119;-60
2022/04/06 00:27:09;;;;;;;27.42;11.80;;;8.60;99.90;;;;;;5093922;28;20544;-60
2022/04/06 00:29:35;;;;;;;27.55;11.52;;;8.60;99.90;;;;;;5093643;28;20044;-61
2022/04/06 00:32:00;;;;;;;30.55;12.35;;;8.60;99.90;;;;;;5094124;28;20397;-60
2022/04/06 00:37:10;;;;;;;31.58;12.93;;;8.60;99.90;;;;;;5093924;28;20048;-60
2022/04/06 00:39:36;;;;;;;27.30;12.40;;;8.60;99.90;;;;;;5093715;28;20066;-60
2022/04/06 00:42:02;;;;;;;31.38;13.43;;;8.60;99.90;;;;;;5093889;28;20043;-60
2022/04/06 00:44:28;;;;;;;30.70;14.00;;;8.50;99.90;;;;;;5093784;28;20028;-60
2022/04/06 00:46:54;;;;;;;30.10;13.30;;;8.60;99.90;;;;;;5093680;28;20498;-61
2022/04/06 00:49:19;;;;;;;33.88;13.95;;;8.60;99.90;;;;;;5093792;28;20044;-60
2022/04/06 00:51:47;;;;;;;29.45;14.00;;;8.60;99.90;;;;;;5092457;28;20047;-60
2022/04/06 00:54:15;;;;;;;38.78;14.32;;;8.70;99.90;;;;;;5093416;28;20067;-60
2022/04/06 00:56:43;;;;;;;30.15;13.60;;;8.60;99.90;;;;;;5093438;28;20036;-61
2022/04/06 00:59:10;;;;;;;31.83;13.50;;;8.60;99.90;;;;;;5093374;28;20036;-60
2022/04/06 01:01:36;;;;;;;33.08;14.27;;;8.60;99.90;;;;;;5091854;28;20135;-61
2022/04/06 01:04:02;;;;;;;30.20;13.95;;;8.60;99.90;;;;;;5092080;28;20118;-61
2022/04/06 01:06:28;;;;;;;41.15;14.68;;;8.60;99.90;;;;;;5093111;28;20036;-61
2022/04/06 01:08:54;;;;;;;29.17;13.50;;;8.50;99.90;;;;;;5093275;28;20032;-60
2022/04/06 01:11:20;;;;;;;29.95;14.02;;;8.60;99.90;;;;;;5093048;28;20044;-60
2022/04/06 01:13:47;;;;;;;38.47;13.50;;;8.60;99.90;;;;;;5093153;28;20036;-60
2022/04/06 01:16:13;;;;;;;30.10;12.38;;;8.60;99.90;;;;;;5093009;28;20040;-61
2022/04/06 01:18:40;;;;;;;31.23;12.43;;;8.60;99.90;;;;;;5093112;28;20048;-61
2022/04/06 01:21:07;;;;;;;28.08;11.80;;;8.50;99.90;;;;;;5093123;28;20040;-61
2022/04/06 01:23:32;;;;;;;28.63;12.63;;;8.60;99.90;;;;;;5092958;28;20706;-61
2022/04/06 01:25:58;;;;;;;31.88;13.52;;;8.50;99.90;;;;;;5092864;28;20135;-60
2022/04/06 01:28:24;;;;;;;28.15;11.77;;;8.60;99.90;;;;;;5092895;28;20043;-60
2022/04/06 01:30:50;;;;;;;34.85;12.75;;;8.60;99.90;;;;;;5092486;28;20048;-60
2022/04/06 01:33:16;;;;;;;29.17;12.18;;;8.60;99.90;;;;;;5092773;28;20548;-60
2022/04/06 01:35:42;;;;;;;31.08;11.23;;;8.60;99.90;;;;;;5092387;28;20066;-60
2022/04/06 01:38:09;;;;;;;32.03;11.68;;;8.60;99.90;;;;;;5092867;28;20040;-60
2022/04/06 01:40:35;;;;;;;34.90;13.07;;;8.60;99.90;;;;;;5091243;28;20118;-60
2022/04/06 01:43:01;;;;;;;27.55;10.95;;;8.60;99.90;;;;;;5092731;28;20040;-60
2022/04/06 01:45:27;;;;;;;25.05;11.45;;;8.60;99.90;;;;;;5092639;28;20036;-60
2022/04/06 01:47:52;;;;;;;30.50;12.10;;;8.70;99.90;;;;;;5092703;28;20141;-60
2022/04/06 01:53:03;;;;;;;24.08;10.60;;;8.70;99.90;;;;;;5092469;28;20040;-61
2022/04/06 01:55:29;;;;;;;23.80;10.32;;;8.70;99.90;;;;;;5092400;28;20545;-60
2022/04/06 01:57:56;;;;;;;24.17;10.70;;;8.70;99.90;;;;;;5092270;28;20032;-61
2022/04/06 02:00:22;;;;;;;28.23;10.77;;;8.70;99.90;;;;;;5092258;28;20040;-60
2022/04/06 02:02:50;;;;;;;30.15;10.45;;;8.70;99.90;;;;;;5091672;28;20040;-60
2022/04/06 02:05:17;;;;;;;26.67;10.10;;;8.70;99.90;;;;;;5092242;28;20047;-61
2022/04/06 02:07:46;;;;;;;25.77;10.00;;;8.70;99.90;;;;;;5092175;28;20051;-61
2022/04/06 02:10:13;;;;;;;24.45;9.57;;;8.70;99.90;;;;;;5091175;28;20079;-60
2022/04/06 02:12:39;;;;;;;23.27;9.43;;;8.70;99.90;;;;;;5092495;28;20044;-60
2022/04/06 02:15:10;;;;;;;22.38;9.60;;;8.60;99.90;;;;;;5092068;28;20032;-60
2022/04/06 02:17:36;;;;;;;24.50;9.38;;;8.70;99.90;;;;;;5092031;28;20498;-61
2022/04/06 02:20:02;;;;;;;21.20;7.93;;;8.70;99.90;;;;;;5092137;28;20050;-60
2022/04/06 02:22:28;;;;;;;18.88;8.73;;;8.70;99.90;;;;;;5091877;28;20040;-60
2022/04/06 02:24:54;;;;;;;20.13;9.13;;;8.70;99.90;;;;;;5090806;28;20050;-61
2022/04/06 02:27:20;;;;;;;24.95;9.27;;;8.70;99.90;;;;;;5091864;28;20044;-60
2022/04/06 02:29:45;;;;;;;26.52;9.88;;;8.70;99.90;;;;;;5091729;28;20147;-60
2022/04/06 02:32:11;;;;;;;21.45;8.50;;;8.60;99.90;;;;;;5092078;28;20089;-60
2022/04/06 02:34:39;;;;;;;25.80;8.70;;;8.60;99.90;;;;;;5091911;28;20051;-60
2022/04/06 02:37:06;;;;;;;22.83;8.30;;;8.60;99.90;;;;;;5091770;28;20047;-61
2022/04/06 02:39:32;;;;;;;28.48;7.93;;;8.70;99.90;;;;;;5091771;28;20036;-60
2022/04/06 02:41:58;;;;;;;20.75;7.75;;;8.60;99.90;;;;;;5091799;28;20036;-60
2022/04/06 02:44:23;;;;;;;18.23;7.75;;;8.60;99.90;;;;;;5091685;28;20118;-61
2022/04/06 02:46:49;;;;;;;19.52;6.95;;;8.60;99.90;;;;;;5091548;28;20044;-60
2022/04/06 02:49:15;;;;;;;21.20;6.50;;;8.60;99.90;;;;;;5091958;28;20116;-60
2022/04/06 02:51:41;;;;;;;14.07;6.50;;;8.60;99.90;;;;;;5091646;28;20486;-60
2022/04/06 02:54:07;;;;;;;13.82;5.70;;;8.60;99.90;;;;;;5091805;28;20028;-60
2022/04/06 02:56:33;;;;;;;18.20;5.88;;;8.60;99.90;;;;;;5091756;28;20040;-60
2022/04/06 02:59:00;;;;;;;13.68;6.28;;;8.70;99.90;;;;;;5091496;28;20037;-60
2022/04/06 03:01:25;;;;;;;17.00;5.07;;;8.60;99.90;;;;;;5091758;28;20038;-60
2022/04/06 03:03:51;;;;;;;17.52;5.15;;;8.60;99.90;;;;;;5091621;28;20043;-60
2022/04/06 03:06:17;;;;;;;13.15;5.35;;;8.60;99.90;;;;;;5091818;28;20490;-60
2022/04/06 03:08:43;;;;;;;13.48;4.13;;;8.60;99.90;;;;;;5090362;28;20036;-61
2022/04/06 03:11:08;;;;;;;9.05;4.00;;;8.60;99.90;;;;;;5091357;28;20035;-61
2022/04/06 03:13:34;;;;;;;9.60;4.20;;;8.70;99.90;;;;;;5091454;28;20028;-60
2022/04/06 03:16:00;;;;;;;11.18;4.47;;;8.60;99.90;;;;;;5093682;28;20090;-60
2022/04/06 03:18:26;;;;;;;17.13;4.82;;;8.60;99.90;;;;;;5095460;28;20043;-61
2022/04/06 03:20:52;;;;;;;12.60;3.70;;;8.60;99.90;;;;;;5095218;28;20040;-60
2022/04/06 03:23:17;;;;;;;12.73;4.88;;;8.60;99.90;;;;;;5095346;28;20394;-61
2022/04/06 03:25:44;;;;;;;9.60;3.35;;;8.60;99.90;;;;;;5095053;28;20375;-61
2022/04/06 03:28:10;;;;;;;8.07;3.22;;;8.60;99.90;;;;;;5094949;28;20552;-60
2022/04/06 03:30:36;;;;;;;15.43;4.35;;;8.60;99.90;;;;;;5094970;28;20084;-61
2022/04/06 03:33:03;;;;;;;8.77;3.92;;;8.60;99.90;;;;;;5093758;28;20509;-60
2022/04/06 03:35:29;;;;;;;12.30;3.03;;;8.50;99.90;;;;;;5095145;28;20024;-61
2022/04/06 03:37:55;;;;;;;9.70;3.63;;;8.50;99.90;;;;;;5094940;28;20539;-60
2022/04/06 03:40:20;;;;;;;10.43;3.30;;;8.60;99.90;;;;;;5094916;28;20039;-60
2022/04/06 03:42:46;;;;;;;8.23;3.70;;;8.60;99.90;;;;;;5094687;28;20106;-61
2022/04/06 03:45:12;;;;;;;9.60;3.40;;;8.60;99.90;;;;;;5094903;28;20411;-60
2022/04/06 03:47:40;;;;;;;10.48;3.53;;;8.60;99.90;;;;;;5094854;28;20036;-60
2022/04/06 03:50:06;;;;;;;13.88;4.03;;;8.60;99.90;;;;;;5094807;28;20032;-60
2022/04/06 03:52:32;;;;;;;12.27;5.20;;;8.60;99.90;;;;;;5094754;28;20113;-60
2022/04/06 03:54:58;;;;;;;11.88;4.15;;;8.50;99.90;;;;;;5094606;28;20036;-60
2022/04/06 03:57:25;;;;;;;17.50;6.53;;;8.60;99.90;;;;;;5094397;28;20073;-60
2022/04/06 03:59:51;;;;;;;13.60;4.97;;;8.60;99.90;;;;;;5094580;28;20075;-60
2022/04/06 04:02:17;;;;;;;13.02;4.85;;;8.50;99.90;;;;;;5094899;28;20395;-61
2022/04/06 04:04:43;;;;;;;16.33;5.28;;;8.50;99.90;;;;;;5094307;28;20474;-60
2022/04/06 04:07:09;;;;;;;15.25;6.35;;;8.50;99.90;;;;;;5094315;28;20036;-61
2022/04/06 04:09:36;;;;;;;18.48;6.00;;;8.50;99.90;;;;;;5094180;28;20061;-60
2022/04/06 04:12:03;;;;;;;24.23;8.13;;;8.50;99.90;;;;;;5092981;28;20040;-60
2022/04/06 04:14:32;;;;;;;19.80;6.93;;;8.40;99.90;;;;;;5094286;28;20093;-61
2022/04/06 04:16:58;;;;;;;21.17;7.80;;;8.40;99.90;;;;;;5094596;28;20115;-60
2022/04/06 04:19:24;;;;;;;16.30;6.40;;;8.40;99.90;;;;;;5094218;28;20040;-61
2022/04/06 04:21:50;;;;;;;22.67;7.32;;;8.40;99.90;;;;;;5094128;28;20039;-60
2022/04/06 04:24:15;;;;;;;20.92;7.40;;;8.40;99.90;;;;;;5094067;28;20028;-60
2022/04/06 04:26:41;;;;;;;20.80;8.30;;;8.40;99.90;;;;;;5093456;28;20517;-60
2022/04/06 04:29:10;;;;;;;22.35;7.63;;;8.40;99.90;;;;;;5093633;28;20142;-60
2022/04/06 04:31:36;;;;;;;23.38;7.55;;;8.40;99.90;;;;;;5094047;28;20104;-60
2022/04/06 04:34:02;;;;;;;24.42;8.77;;;8.40;99.90;;;;;;5093862;28;20040;-60
2022/04/06 04:36:28;;;;;;;22.85;8.38;;;8.40;99.90;;;;;;5093872;28;20039;-60
2022/04/06 04:38:54;;;;;;;23.02;8.95;;;8.40;99.90;;;;;;5093793;28;20047;-61
2022/04/06 04:41:20;;;;;;;21.77;7.80;;;8.40;99.90;;;;;;5093585;28;20048;-60
2022/04/06 04:43:46;;;;;;;21.95;9.48;;;8.30;99.90;;;;;;5094079;28;20044;-59
2022/04/06 04:46:11;;;;;;;27.33;9.88;;;8.40;99.90;;;;;;5093704;28;20440;-59
2022/04/06 04:48:37;;;;;;;23.85;9.40;;;8.40;99.90;;;;;;5093709;28;20042;-60
2022/04/06 04:51:04;;;;;;;18.00;7.68;;;8.50;99.90;;;;;;5093513;28;20028;-60
2022/04/06 04:53:30;;;;;;;23.38;9.63;;;8.40;99.90;;;;;;5093507;28;20039;-59
2022/04/06 04:55:56;;;;;;;21.70;10.00;;;8.40;99.90;;;;;;5093681;28;20047;-59
2022/04/06 04:58:22;;;;;;;20.48;8.95;;;8.40;99.90;;;;;;5093654;28;20032;-60
2022/04/06 05:00:48;;;;;;;16.05;8.05;;;8.50;99.90;;;;;;5093406;28;20042;-60
2022/04/06 05:03:13;;;;;;;22.70;8.93;;;8.40;99.90;;;;;;5092257;28;20043;-60
2022/04/06 05:05:42;;;;;;;22.00;8.07;;;8.40;99.90;;;;;;5093214;28;20043;-60
2022/04/06 05:08:08;;;;;;;26.00;8.63;;;8.40;99.90;;;;;;5093085;28;20048;-59
2022/04/06 05:10:34;;;;;;;23.90;7.75;;;8.40;99.90;;;;;;5092006;28;20052;-60
2022/04/06 05:12:59;;;;;;;17.23;6.93;;;8.40;99.90;;;;;;5093454;28;20039;-60
2022/04/06 05:15:25;;;;;;;24.35;8.32;;;8.40;99.90;;;;;;5093539;28;20444;-60
2022/04/06 05:17:51;;;;;;;26.63;8.50;;;8.40;99.90;;;;;;5092866;28;20048;-60
2022/04/06 05:20:17;;;;;;;31.08;8.10;;;8.40;99.90;;;;;;5092942;28;20367;-60
2022/04/06 05:22:42;;;;;;;24.13;7.90;;;8.40;99.90;;;;;;5092910;28;20039;-60
2022/04/06 05:25:08;;;;;;;21.27;7.53;;;8.40;99.90;;;;;;5091949;28;20140;-59
2022/04/06 05:27:48;;;;;;;25.33;7.53;;;8.40;99.90;;;;;;5091643;28;20036;-59
2022/04/06 05:30:15;;;;;;;17.38;8.02;;;8.40;99.90;;;;;;5092746;28;20131;-59
2022/04/06 05:32:41;;;;;;;20.02;7.53;;;8.30;99.90;;;;;;5092632;28;20044;-59
2022/04/06 05:35:09;;;;;;;22.95;7.20;;;8.30;99.90;;;;;;5092760;28;20174;-60
2022/04/06 05:37:39;;;;;;;26.73;8.15;;;8.20;99.90;;;;;;5091989;28;20040;-60
2022/04/06 05:40:06;;;;;;;26.02;7.43;;;8.20;99.90;;;;;;5092702;28;20046;-59
2022/04/06 05:42:32;;;;;;;24.88;7.93;;;8.30;99.90;;;;;;5092467;28;20180;-59
2022/04/06 05:44:57;;;;;;;22.02;8.65;;;8.20;99.90;;;;;;5092603;28;20118;-60
2022/04/06 05:47:24;;;;;;;22.33;7.63;;;8.20;99.90;;;;;;5092298;28;20509;-60
2022/04/06 05:49:50;;;;;;;20.73;7.30;;;8.20;99.90;;;;;;5092358;28;20040;-59
2022/04/06 05:52:16;;;;;;;25.15;8.00;;;8.20;99.90;;;;;;5092266;28;20036;-60
2022/04/06 05:54:42;;;;;;;24.65;8.70;;;8.20;99.90;;;;;;5092565;28;20121;-60
2022/04/06 05:57:07;;;;;;;22.13;8.70;;;8.20;99.90;;;;;;5092248;28;20047;-60
2022/04/06 05:59:33;;;;;;;25.75;8.68;;;8.20;99.90;;;;;;5092353;28;20127;-60
2022/04/06 06:01:59;;;;;;;24.42;8.57;;;8.20;99.90;;;;;;5092697;28;20051;-60
2022/04/06 06:04:24;;;;;;;23.65;8.18;;;8.20;99.90;;;;;;5092067;28;20386;-60
2022/04/06 06:06:50;;;;;;;19.50;8.65;;;8.20;99.90;;;;;;5091948;28;20039;-60
2022/04/06 06:09:15;;;;;;;17.73;7.97;;;8.20;99.90;;;;;;5092483;28;20077;-59
2022/04/06 06:11:44;;;;;;;19.10;7.32;;;8.20;99.90;;;;;;5090641;28;20079;-60
2022/04/06 06:14:10;;;;;;;16.75;6.97;;;8.20;99.90;;;;;;5091981;28;20505;-59
2022/04/06 06:16:35;;;;;;;21.77;7.35;;;8.20;99.90;;;;;;5092002;28;20040;-60
2022/04/06 06:19:01;;;;;;;24.33;7.80;;;8.10;99.90;;;;;;5091911;28;20078;-60
2022/04/06 06:21:31;;;;;;;15.90;7.45;;;8.10;99.90;;;;;;5090829;28;20036;-60
2022/04/06 06:24:04;;;;;;;15.98;7.22;;;8.10;99.90;;;;;;5092178;28;20055;-60
2022/04/06 06:26:30;;;;;;;14.70;6.68;;;8.10;99.90;;;;;;5091896;28;20643;-59
2022/04/06 06:28:55;;;;;;;17.77;7.30;;;8.10;99.90;;;;;;5092070;28;20036;-60
2022/04/06 06:31:21;;;;;;;21.83;7.22;;;8.10;99.90;;;;;;5090843;28;20119;-60
2022/04/06 06:33:47;;;;;;;16.42;6.70;;;8.10;99.90;;;;;;5091792;28;20032;-60
2022/04/06 06:36:13;;;;;;;16.63;6.00;;;8.10;99.90;;;;;;5092059;28;20032;-58
2022/04/06 06:38:38;;;;;;;20.90;6.32;;;8.10;99.90;;;;;;5091953;28;20497;-59
2022/04/06 06:41:04;;;;;;;16.33;7.38;;;8.10;99.90;;;;;;5091756;28;20457;-60
2022/04/06 06:43:30;;;;;;;15.50;6.10;;;8.10;99.90;;;;;;5091851;28;20044;-60
2022/04/06 06:45:55;;;;;;;21.83;6.78;;;8.10;99.90;;;;;;5091780;28;20032;-59
2022/04/06 06:48:21;;;;;;;21.08;6.70;;;8.10;99.90;;;;;;5090258;28;20044;-60
2022/04/06 06:50:47;;;;;;;17.10;6.82;;;8.10;99.90;;;;;;5095570;28;20028;-60
2022/04/06 06:53:12;;;;;;;18.38;7.70;;;8.10;99.90;;;;;;5095748;28;20133;-61
2022/04/06 06:55:38;;;;;;;15.65;6.80;;;8.20;99.90;;;;;;5095870;28;20073;-60
2022/04/06 06:58:04;;;;;;;20.75;6.07;;;8.10;99.90;;;;;;5095632;28;20044;-60
2022/04/06 07:00:30;;;;;;;18.02;5.05;;;8.20;99.90;;;;;;5095679;28;20050;-60
2022/04/06 07:02:55;;;;;;;15.98;5.05;;;8.10;99.90;;;;;;5095451;28;20188;-60
2022/04/06 07:05:22;;;;;;;14.95;4.93;;;8.10;99.90;;;;;;5095794;28;20526;-60
2022/04/06 07:07:52;;;;;;;18.48;5.10;;;8.20;99.90;;;;;;5095805;28;20521;-58
2022/04/06 07:10:17;;;;;;;20.67;4.95;;;8.20;99.90;;;;;;5095495;28;20032;-58
2022/04/06 07:12:43;;;;;;;12.68;4.10;;;8.20;99.90;;;;;;5095505;28;20038;-58
2022/04/06 07:15:09;;;;;;;18.45;4.22;;;8.20;99.90;;;;;;5111480;28;20554;-58
2022/04/06 07:17:34;;;;;;;25.02;4.85;;;8.10;99.90;;;;;;5095580;28;20143;-58
2022/04/06 07:20:00;;;;;;;10.98;3.60;;;8.10;99.90;;;;;;5095472;28;20040;-58
2022/04/06 07:22:26;;;;;;;16.48;4.53;;;8.20;99.90;;;;;;5095238;28;20402;-58
2022/04/06 07:24:51;;;;;;;11.65;3.88;;;8.10;99.90;;;;;;5095093;28;20394;-58
2022/04/06 07:27:17;;;;;;;14.98;3.88;;;8.10;99.90;;;;;;5095141;28;20039;-58
2022/04/06 07:29:43;;;;;;;15.30;4.43;;;8.20;99.90;;;;;;5095097;28;20048;-57
2022/04/06 07:32:09;;;;;;;12.13;3.88;;;8.20;99.90;;;;;;5094793;28;20109;-58
2022/04/06 07:34:34;;;;;;;12.25;4.15;;;8.20;99.90;;;;;;5095088;28;20040;-57
2022/04/06 07:37:00;;;;;;;15.73;3.92;;;8.20;99.90;;;;;;5094813;28;20036;-59
2022/04/06 07:39:27;;;;;;;11.32;3.53;;;8.20;99.90;;;;;;5094843;28;20040;-60
2022/04/06 07:41:56;;;;;;;9.60;4.00;;;8.20;99.90;;;;;;5094900;28;20044;-58
2022/04/06 07:44:23;;;;;;;14.73;3.90;;;8.20;99.90;;;;;;5094752;28;20043;-59
2022/04/06 07:46:49;;;;;;;15.70;4.30;;;8.20;99.90;;;;;;5094447;28;20040;-58
2022/04/06 07:49:14;;;;;;;13.10;3.72;;;8.20;99.90;;;;;;5094817;28;20032;-59
2022/04/06 07:51:40;;;;;;;9.35;3.83;;;8.20;99.90;;;;;;5094800;28;20075;-60
2022/04/06 07:54:06;;;;;;;12.10;3.70;;;8.20;99.90;;;;;;5094656;28;20120;-59
2022/04/06 07:56:31;;;;;;;13.55;3.83;;;8.20;99.90;;;;;;5093570;28;20048;-59
2022/04/06 07:58:57;;;;;;;11.80;3.55;;;8.30;99.90;;;;;;5094481;28;20068;-59
2022/04/06 08:01:23;;;;;;;14.35;3.60;;;8.30;99.90;;;;;;5093693;28;20042;-59
2022/04/06 08:03:48;;;;;;;16.08;4.45;;;8.20;99.90;;;;;;5094562;28;20131;-59
2022/04/06 08:06:14;;;;;;;14.95;4.10;;;8.30;99.90;;;;;;5094709;28;20102;-59
2022/04/06 08:08:40;;;;;;;19.50;5.07;;;8.30;99.90;;;;;;5094667;28;20040;-59
2022/04/06 08:11:06;;;;;;;14.57;4.63;;;8.30;99.90;;;;;;5094272;28;20487;-59
2022/04/06 08:13:32;;;;;;;21.73;4.32;;;8.30;99.90;;;;;;5094107;28;20040;-59
2022/04/06 08:15:59;;;;;;;18.48;5.53;;;8.40;99.90;;;;;;5094091;28;20044;-59
2022/04/06 08:18:25;;;;;;;14.43;4.43;;;8.40;99.90;;;;;;5094142;28;20504;-60
2022/04/06 08:20:51;;;;;;;14.55;4.20;;;8.40;99.90;;;;;;5094655;28;20043;-60
2022/04/06 08:23:18;;;;;;;12.15;4.13;;;8.40;99.90;;;;;;5093993;28;20036;-59
2022/04/06 08:25:44;;;;;;;14.73;4.00;;;8.40;99.90;;;;;;5094004;28;20039;-60
2022/04/06 08:28:10;;;;;;;18.45;4.18;;;8.40;99.90;;;;;;5093803;28;20447;-59
2022/04/06 08:30:40;;;;;;;19.70;4.00;;;8.40;99.90;;;;;;5089326;28;20513;-60
2022/04/06 08:33:06;;;;;;;17.50;4.30;;;8.40;99.90;;;;;;5093864;28;20036;-60
2022/04/06 08:35:32;;;;;;;16.40;5.38;;;8.40;99.90;;;;;;5089387;28;20032;-59
2022/04/06 08:37:57;;;;;;;16.88;5.75;;;8.30;99.90;;;;;;5093809;28;20474;-60
2022/04/06 08:40:23;;;;;;;19.55;4.93;;;8.40;99.90;;;;;;5092243;28;20040;-59
2022/04/06 08:42:49;;;;;;;9.02;3.90;;;8.40;99.90;;;;;;5093703;28;20031;-59
2022/04/06 08:45:16;;;;;;;10.57;4.43;;;8.40;99.90;;;;;;5092109;28;20036;-59
2022/04/06 08:47:46;;;;;;;20.73;4.68;;;8.40;99.90;;;;;;5092541;28;20044;-59
2022/04/06 08:50:11;;;;;;;16.05;4.82;;;8.40;99.90;;;;;;5090460;28;20110;-59
2022/04/06 08:52:38;;;;;;;12.23;3.97;;;8.40;99.90;;;;;;5090954;28;20036;-59
2022/04/06 08:55:04;;;;;;;14.02;5.03;;;8.50;99.90;;;;;;5093231;28;20036;-59
2022/04/06 08:57:33;;;;;;;14.20;4.78;;;8.50;99.90;;;;;;5092876;28;20486;-59
2022/04/06 08:59:58;;;;;;;16.80;4.50;;;8.60;99.90;;;;;;5092204;28;20060;-59
2022/04/06 09:02:24;;;;;;;11.80;4.45;;;8.60;99.90;;;;;;5092320;28;20071;-59
2022/04/06 09:04:55;;;;;;;19.88;4.50;;;8.60;99.90;;;;;;5088880;28;20048;-59
2022/04/06 09:07:22;;;;;;;15.77;4.10;;;8.70;99.90;;;;;;5091377;28;20363;-58
2022/04/06 09:09:52;;;;;;;11.10;3.08;;;8.70;99.90;;;;;;5092668;28;20036;-59
2022/04/06 09:12:20;;;;;;;11.00;3.42;;;8.80;99.90;;;;;;5089110;28;20084;-59
2022/04/06 09:14:47;;;;;;;15.05;3.25;;;8.80;99.90;;;;;;5090120;28;20044;-59
2022/04/06 09:17:18;;;;;;;13.13;4.75;;;8.90;99.90;;;;;;5088313;28;20043;-60
2022/04/06 09:19:49;;;;;;;17.50;4.32;;;8.90;99.90;;;;;;5090987;28;20109;-59
2022/04/06 09:22:15;;;;;;;9.77;3.35;;;9.10;99.90;;;;;;5090653;28;20043;-59
2022/04/06 09:24:41;;;;;;;13.27;3.38;;;9.10;99.90;;;;;;5093013;28;20454;-61
2022/04/06 09:27:07;;;;;;;13.93;3.55;;;9.20;99.90;;;;;;5093136;28;20111;-61
2022/04/06 09:29:35;;;;;;;12.70;3.92;;;9.20;99.90;;;;;;5091191;28;20123;-61
2022/04/06 09:32:08;;;;;;;11.35;3.42;;;9.30;99.90;;;;;;5092444;28;20066;-61
2022/04/06 09:34:35;;;;;;;13.02;4.18;;;9.30;99.90;;;;;;5092585;28;20043;-62
2022/04/06 09:37:26;;;;;;;17.95;4.57;;;9.40;99.90;;;;;;5092476;28;20044;-61
2022/04/06 09:39:52;;;;;;;13.27;3.90;;;9.50;99.90;;;;;;5092668;28;20044;-61
2022/04/06 09:42:24;;;;;;;14.48;4.65;;;9.60;99.90;;;;;;5092565;28;20051;-59
2022/04/06 09:47:40;;;;;;;9.52;3.78;;;9.70;99.90;;;;;;5092737;28;20040;-59
2022/04/06 09:50:19;;;;;;;13.77;4.07;;;9.70;99.90;;;;;;5092498;28;20035;-61
2022/04/06 09:52:46;;;;;;;17.80;3.85;;;9.80;99.90;;;;;;5092482;28;20393;-62
2022/04/06 09:55:14;;;;;;;14.52;4.50;;;9.90;99.90;;;;;;5092255;28;20032;-60
2022/04/06 09:57:52;;;;;;;17.20;5.55;;;9.80;99.90;;;;;;5092321;28;20050;-59
2022/04/06 10:00:23;;;;;;;12.52;4.07;;;9.80;99.90;;;;;;5092513;28;20164;-59
2022/04/06 10:03:10;;;;;;;12.88;4.28;;;9.80;99.90;;;;;;5092191;28;20036;-61
2022/04/06 10:05:38;;;;;;;10.38;3.83;;;9.80;99.90;;;;;;5092228;28;20036;-61
2022/04/06 10:08:05;;;;;;;16.48;4.03;;;9.90;99.90;;;;;;5091974;28;20036;-59
2022/04/06 10:10:38;;;;;;;12.73;3.97;;;9.80;99.90;;;;;;5091900;28;20032;-59
2022/04/06 10:13:05;;;;;;;16.52;3.63;;;9.90;99.90;;;;;;5091859;28;20129;-61
2022/04/06 10:15:32;;;;;;;17.92;4.78;;;9.90;99.90;;;;;;5092115;28;20047;-59
2022/04/06 10:17:58;;;;;;;18.30;4.13;;;9.80;99.90;;;;;;5091936;28;20043;-61
2022/04/06 10:20:36;;;;;;;18.38;4.35;;;9.80;99.90;;;;;;5092045;28;20040;-59
2022/04/06 10:23:05;;;;;;;14.07;3.65;;;9.80;99.90;;;;;;5090731;28;20039;-59
2022/04/06 10:25:55;;;;;;;13.38;4.10;;;9.80;99.90;;;;;;5092052;28;20147;-62
2022/04/06 10:28:22;;;;;;;16.10;4.68;;;9.80;99.90;;;;;;5092072;28;20044;-59
2022/04/06 10:31:27;;;;;;;13.40;4.38;;;9.80;99.90;;;;;;5092046;28;20233;-59
2022/04/06 10:34:22;;;;;;;18.85;4.57;;;9.90;99.90;;;;;;5052683;28;20040;-59
2022/04/06 10:37:07;;;;;;;17.95;4.60;;;9.80;99.90;;;;;;5069372;28;20075;-59
2022/04/06 10:39:54;;;;;;;15.95;4.85;;;9.80;99.90;;;;;;5069500;28;20055;-59
2022/04/06 10:42:35;;;;;;;19.35;5.55;;;9.90;99.90;;;;;;5069604;28;20167;-59
2022/04/06 10:45:29;;;;;;;20.65;5.30;;;9.80;99.90;;;;;;5069337;28;20047;-61
2022/04/06 10:48:22;;;;;;;24.67;5.53;;;9.80;99.90;;;;;;5069253;28;20051;-59
2022/04/06 10:50:49;;;;;;;19.90;5.72;;;9.80;99.90;;;;;;5009486;28;20053;-60
2022/04/06 10:53:18;;;;;;;16.48;5.30;;;9.80;99.90;;;;;;5009602;28;20056;-60
2022/04/06 10:55:55;;;;;;;12.80;4.97;;;9.70;99.90;;;;;;5009600;28;20088;-60
2022/04/06 10:58:23;;;;;;;17.15;5.25;;;9.70;99.90;;;;;;5009533;28;20042;-60
2022/04/06 11:01:16;;;;;;;17.40;5.32;;;9.70;99.90;;;;;;5009558;28;20115;-60
2022/04/06 11:04:09;;;;;;;19.23;5.65;;;9.70;99.90;;;;;;5009758;28;20519;-60
2022/04/06 11:06:41;;;;;;;18.27;5.47;;;9.70;99.90;;;;;;4934889;28;20057;-63
2022/04/06 11:12:35;;;;;;;20.77;5.40;;;9.80;99.90;;;;;;4931947;29;20047;-62
2022/04/06 11:15:01;;;;;;;15.23;4.97;;;9.80;99.90;;;;;;4931868;29;20043;-62
2022/04/06 11:17:30;;;;;;;22.88;5.07;;;9.80;99.90;;;;;;4931811;29;20522;-62
2022/04/06 11:19:56;;;;;;;;;;;9.70;99.90;;;;;;4932217;29;20058;-62
2022/04/06 11:22:22;;;;;;;18.08;5.05;;;9.80;99.90;;;;;;4931783;29;19918;-62
2022/04/06 11:24:48;;;;;;;24.05;5.68;;;9.70;99.90;;;;;;4931780;29;20525;-62
2022/04/06 11:27:32;;;;;;;19.10;5.35;;;9.80;99.90;;;;;;4921639;29;20131;-62
2022/04/06 11:30:09;;;;;;;24.33;5.60;;;9.90;99.90;;;;;;4950854;29;20492;-62
2022/04/06 11:32:36;;;;;;;20.27;5.68;;;10.10;99.90;;;;;;4950907;29;20066;-62
2022/04/06 11:35:02;;;;;;;22.10;5.78;;;10.20;99.90;;;;;;4950861;28;20473;-62
2022/04/06 11:37:28;;;;;;;18.10;4.75;;;10.50;99.90;;;;;;4953505;29;20058;-62
2022/04/06 11:40:00;;;;;;;18.95;4.95;;;10.60;99.90;;;;;;4954330;29;20043;-62
2022/04/06 11:42:27;;;;;;;22.98;6.50;;;10.70;99.90;;;;;;4957456;28;20047;-62
2022/04/06 11:44:53;;;;;;;24.73;5.13;;;10.80;99.90;;;;;;5052220;28;20124;-62
2022/04/06 11:47:30;;;;;;;25.13;4.43;;;10.80;99.90;;;;;;5067319;28;20482;-62
2022/04/06 11:49:56;;;;;;;23.67;4.47;;;10.80;99.90;;;;;;5094750;28;20055;-62
2022/04/06 11:52:21;;;;;;;18.25;5.07;;;10.90;99.90;;;;;;5095087;28;20454;-62
2022/04/06 11:54:55;;;;;;;18.40;4.75;;;11.20;99.90;;;;;;5095030;28;20040;-62
2022/04/06 11:57:36;;;;;;;19.48;4.63;;;11.50;99.90;;;;;;5094675;28;20476;-62
2022/04/06 12:00:04;;;;;;;26.38;4.80;;;11.70;99.90;;;;;;5095112;28;20044;-62
2022/04/06 12:02:47;;;;;;;17.63;4.13;;;11.90;99.90;;;;;;5094758;28;20398;-62
2022/04/06 12:05:13;;;;;;;17.83;3.97;;;12.00;99.90;;;;;;5094358;28;20481;-62
2022/04/06 12:07:38;;;;;;;13.60;3.50;;;12.20;99.90;;;;;;5094330;28;20047;-62
2022/04/06 12:10:05;;;;;;;17.83;3.92;;;12.10;99.90;;;;;;5094415;28;20541;-63
2022/04/06 12:12:35;;;;;;;16.50;3.53;;;12.20;99.90;;;;;;5094237;28;20145;-62
2022/04/06 12:15:02;;;;;;;16.55;3.45;;;12.20;99.90;;;;;;5094214;28;20477;-62
2022/04/06 12:17:28;;;;;;;17.55;3.80;;;12.10;99.90;;;;;;5094133;28;20032;-62
2022/04/06 12:19:53;;;;;;;13.43;3.22;;;12.00;99.90;;;;;;5094160;28;20047;-61
2022/04/06 12:22:25;;;;;;;18.17;4.50;;;12.00;99.90;;;;;;5094243;28;20050;-61
2022/04/06 12:24:51;;;;;;;12.02;3.05;;;11.90;99.90;;;;;;5094174;28;20043;-62
2022/04/06 12:27:27;;;;;;;13.45;3.42;;;11.80;99.90;;;;;;5093916;28;20043;-62
2022/04/06 12:30:06;;;;;;;12.88;3.35;;;11.70;99.90;;;;;;5093755;28;20070;-62
2022/04/06 12:32:45;;;;;;;16.83;3.22;;;11.70;99.90;;;;;;5092521;28;20040;-62
2022/04/06 12:35:21;;;;;;;12.55;3.67;;;12.00;99.90;;;;;;5093892;28;20062;-62
2022/04/06 12:37:47;;;;;;;15.38;3.28;;;12.00;99.90;;;;;;5093839;28;20047;-61
2022/04/06 12:40:23;;;;;;;12.88;3.03;;;12.10;99.90;;;;;;5093634;28;20044;-62
2022/04/06 12:42:49;;;;;;;14.85;3.20;;;12.00;99.90;;;;;;5093554;28;20040;-62
2022/04/06 12:45:15;;;;;;;17.52;3.88;;;12.00;99.90;;;;;;5093462;28;20470;-62
2022/04/06 12:47:41;;;;;;;14.00;3.40;;;11.80;99.90;;;;;;5093352;28;20040;-62
2022/04/06 12:50:19;;;;;;;18.38;4.35;;;11.80;99.90;;;;;;5093548;28;20036;-61
2022/04/06 12:53:08;;;;;;;14.18;3.22;;;11.60;99.90;;;;;;5093454;28;20115;-63
2022/04/06 12:55:35;;;;;;;17.02;3.30;;;11.60;99.90;;;;;;5093598;28;20428;-62
2022/04/06 12:58:26;;;;;;;12.88;3.20;;;11.60;99.90;;;;;;5093415;28;20040;-62
2022/04/06 13:00:58;;;;;;;9.93;2.97;;;11.70;99.90;;;;;;5093378;28;20410;-63